»·PEaware :: N208ME KPMD-KNZY

N208ME :: KPMD-KNZY

FLIGHT INFORMATION

Flight Status: Arrived
Operator: Privately registered:
United States
More flights under this callsign
Pilot: Donald B. (31773)
Aircraft: CESSNA 208 CARAVAN
(C208)
More flights by this aircraft type
Origin: KPMD Palmdale AF Plant 42
United States
Destination: KNZY North Island NAS
United States
More flights between these airports :: More routes between these airports
Route: PMD V201 BERRI V459 SLI V23 MZB
File this flight plan on PilotEdge
Remarks:
Altitude:
(Current/Filed)
13,000ft
Speed:
(Current/Filed)
177kts
Departed: 21-Aug-22 03:22 PM
Arrived: 21-Aug-22 04:27 PM
Distance/Time
Traveled:
124nm/1:05
Distance/Time
To Go:
Arrived

Flight Plot

Page will automatically refresh every two minutes.

Flight plan parsing failed; only flown route is shown


Map Options




Map Legend


Flown Route
Filed Route
Departure Airport
Arrival Airport
Navaid (VOR, NDB)
Fix

Horizontal Profiles

Position Reports

Time Latitude Longitude Heading Altitude Ground
Speed
21-Aug-22 15:06 34.635867 -118.095799 88 2523ft 0kts
21-Aug-22 15:12 34.635867 -118.095799 88 2541ft 0kts
21-Aug-22 15:13 34.635867 -118.095799 88 2541ft 0kts
21-Aug-22 15:14 34.635867 -118.095799 88 2541ft 0kts
21-Aug-22 15:15 34.635867 -118.095799 88 2541ft 0kts
21-Aug-22 15:16 34.635867 -118.095799 88 2541ft 0kts
21-Aug-22 15:17 34.635867 -118.095799 88 2541ft 0kts
21-Aug-22 15:18 34.635867 -118.095799 88 2541ft 0kts
21-Aug-22 15:19 34.635867 -118.095799 88 2541ft 0kts
21-Aug-22 15:20 34.635867 -118.095799 88 2541ft 0kts
21-Aug-22 15:21 34.636046 -118.096102 219 2518ft 4kts
21-Aug-22 15:22 34.634630 -118.090693 87 2520ft 42kts
21-Aug-22 15:23 34.635409 -118.075826 106 2505ft 53kts
21-Aug-22 15:24 34.637352 -118.064457 51 2502ft 31kts
21-Aug-22 15:25 34.638690 -118.062458 57 2497ft 0kts
21-Aug-22 15:25 34.638690 -118.062458 57 2497ft 0kts
21-Aug-22 15:27 34.638690 -118.062458 57 2497ft 0kts
21-Aug-22 15:28 34.638758 -118.062201 86 2497ft 12kts
21-Aug-22 15:29 34.637907 -118.061158 139 2500ft 9kts
21-Aug-22 15:29 34.630981 -118.072142 238 2735ft 85kts
21-Aug-22 15:30 34.612516 -118.096996 172 3294ft 108kts
21-Aug-22 15:31 34.583847 -118.089741 203 3859ft 113kts
21-Aug-22 15:33 34.549051 -118.107544 207 4903ft 118kts
21-Aug-22 15:34 34.518764 -118.123642 207 5616ft 120kts
21-Aug-22 15:34 34.493099 -118.137264 207 6137ft 121kts
21-Aug-22 15:35 34.461910 -118.153771 207 6827ft 123kts
21-Aug-22 15:36 34.430279 -118.170536 206 7543ft 124kts
21-Aug-22 15:38 34.393093 -118.190165 204 8256ft 125kts
21-Aug-22 15:38 34.366068 -118.204436 205 8798ft 127kts
21-Aug-22 15:39 34.333475 -118.221709 204 9452ft 128kts
21-Aug-22 15:40 34.300533 -118.239094 204 10107ft 129kts
21-Aug-22 15:41 34.267314 -118.256584 203 10724ft 131kts
21-Aug-22 15:42 34.233814 -118.274273 203 11372ft 132kts
21-Aug-22 15:43 34.200031 -118.291972 197 11971ft 132kts
21-Aug-22 15:44 34.166495 -118.275672 154 12506ft 137kts
21-Aug-22 15:45 34.127898 -118.253388 154 12463ft 163kts
21-Aug-22 15:46 34.086525 -118.229441 154 12462ft 167kts
21-Aug-22 15:47 34.044603 -118.205222 154 12469ft 168kts
21-Aug-22 15:48 34.002283 -118.180798 154 12470ft 168kts
21-Aug-22 15:49 33.961886 -118.157474 154 12818ft 153kts
21-Aug-22 15:50 33.923282 -118.135262 154 13011ft 159kts
21-Aug-22 15:51 33.882269 -118.111673 154 12985ft 165kts
21-Aug-22 15:52 33.840564 -118.087705 154 12985ft 166kts
21-Aug-22 15:53 33.798825 -118.063752 154 12985ft 166kts
21-Aug-22 15:54 33.762967 -118.030648 137 12976ft 164kts
21-Aug-22 15:55 33.730046 -117.991832 135 13006ft 166kts
21-Aug-22 15:56 33.697046 -117.952830 135 13000ft 167kts
21-Aug-22 15:57 33.663928 -117.913724 135 13002ft 167kts
21-Aug-22 15:58 33.630698 -117.874530 135 12999ft 166kts
21-Aug-22 15:59 33.597915 -117.835911 135 12994ft 166kts
21-Aug-22 16:00 33.565111 -117.797306 135 12988ft 164kts
21-Aug-22 16:01 33.532465 -117.758941 135 12995ft 164kts
21-Aug-22 16:02 33.499907 -117.720676 135 12994ft 164kts
21-Aug-22 16:03 33.466374 -117.681387 135 12571ft 176kts
21-Aug-22 16:04 33.430754 -117.639677 135 11803ft 180kts
21-Aug-22 16:05 33.394615 -117.597431 135 11049ft 182kts
21-Aug-22 16:06 33.358341 -117.555065 135 10283ft 184kts
21-Aug-22 16:07 33.321455 -117.512047 135 9322ft 186kts
21-Aug-22 16:08 33.284262 -117.468695 135 8350ft 187kts
21-Aug-22 16:09 33.246454 -117.425173 135 7407ft 189kts
21-Aug-22 16:10 33.197760 -117.417374 191 6508ft 189kts
21-Aug-22 16:11 33.145681 -117.427518 191 5555ft 189kts
21-Aug-22 16:12 33.093764 -117.437168 191 4624ft 188kts
21-Aug-22 16:13 33.043452 -117.447225 191 4022ft 169kts
21-Aug-22 16:14 32.998579 -117.456462 191 4022ft 163kts
21-Aug-22 16:15 32.953647 -117.465793 191 4021ft 163kts
21-Aug-22 16:16 32.909179 -117.464321 161 4026ft 164kts
21-Aug-22 16:17 32.865892 -117.446704 161 4030ft 164kts
21-Aug-22 16:18 32.822665 -117.429074 161 4029ft 166kts
21-Aug-22 16:19 32.783499 -117.401805 131 4019ft 166kts
21-Aug-22 16:20 32.753130 -117.360886 132 3937ft 164kts
21-Aug-22 16:21 32.722860 -117.319354 131 2644ft 164kts
21-Aug-22 16:22 32.693321 -117.278741 131 1380ft 152kts
21-Aug-22 16:23 32.669703 -117.248703 124 1125ft 98kts
21-Aug-22 16:24 32.670820 -117.224798 20 662ft 108kts
21-Aug-22 16:25 32.692666 -117.217382 17 25ft 48kts
21-Aug-22 16:26 32.693849 -117.215021 100 26ft 0kts

Navigation Log

Ident Type
Flight plan parsing failed, navigation log unavailable